Time;durP1;ratioP1;P1;durP2;ratioP2;P2;SDS_P1;SDS_P2;PMS_P1;PMS_P2;Temp;Humidity;BMP_temperature;BMP_pressure;BME280_temperature;BME280_humidity;BME280_pressure;Samples;Min_cycle;Max_cycle;Signal;HPM_P1;HPM_P2
2024/01/23 00:01:00;;;;;;;62.88;59.47;;;;;;;9.31;67.73;101643.03;5111196;28;20024;-73
2024/01/23 00:03:25;;;;;;;65.87;62.90;;;;;;;9.31;67.63;101651.13;5098082;28;20039;-74
2024/01/23 00:05:51;;;;;;;61.85;58.58;;;;;;;9.34;67.71;101665.22;5106573;28;20542;-75
2024/01/23 00:08:16;;;;;;;64.38;60.78;;;;;;;9.30;67.50;101660.28;5110492;28;20030;-73
2024/01/23 00:10:42;;;;;;;67.40;63.60;;;;;;;9.29;67.49;101673.94;5110958;28;20379;-73
2024/01/23 00:13:07;;;;;;;66.00;62.55;;;;;;;9.30;67.76;101683.72;5103516;28;20034;-72
2024/01/23 00:15:35;;;;;;;63.13;60.10;;;;;;;9.30;67.85;101683.72;5107523;28;20213;-73
2024/01/23 00:18:00;;;;;;;63.33;60.33;;;;;;;9.29;67.44;101688.25;5110523;28;20522;-73
2024/01/23 00:20:26;;;;;;;61.28;58.42;;;;;;;9.28;67.68;101691.19;5110112;28;20063;-73
2024/01/23 00:22:51;;;;;;;69.30;65.82;;;;;;;9.28;67.62;101701.97;5097268;28;20068;-73
2024/01/23 00:25:16;;;;;;;66.40;62.78;;;;;;;9.27;67.63;101703.84;5108366;28;20472;-74
2024/01/23 00:27:42;;;;;;;62.38;59.20;;;;;;;9.27;67.82;101711.06;5092173;28;20067;-74
2024/01/23 00:30:09;;;;;;;67.05;63.75;;;;;;;9.28;67.73;101718.16;5110321;28;20066;-73
2024/01/23 00:32:35;;;;;;;68.03;64.15;;;;;;;9.27;67.52;101697.59;5108676;28;20469;-73
2024/01/23 00:35:00;;;;;;;63.92;60.83;;;;;;;9.27;67.33;101719.16;5110195;28;20222;-73
2024/01/23 00:37:26;;;;;;;69.47;66.28;;;;;;;9.24;67.49;101711.50;5101256;28;20039;-78
2024/01/23 00:39:51;;;;;;;63.25;60.25;;;;;;;9.24;67.48;101704.22;5112291;28;20035;-74
2024/01/23 00:42:17;;;;;;;64.28;61.15;;;;;;;9.25;67.01;101715.88;5111512;28;20039;-74
2024/01/23 00:44:43;;;;;;;62.80;59.35;;;;;;;9.21;67.22;101728.91;5106514;28;20035;-73
2024/01/23 00:47:09;;;;;;;62.47;59.33;;;;;;;9.19;67.53;101732.88;5106027;28;20082;-73
2024/01/23 00:49:34;;;;;;;65.90;62.00;;;;;;;9.17;67.56;101719.63;5110238;28;20483;-73
2024/01/23 00:51:59;;;;;;;63.95;61.03;;;;;;;9.16;67.27;101730.59;5110108;28;20451;-74
2024/01/23 00:54:25;;;;;;;66.57;63.00;;;;;;;9.17;67.16;101738.47;5105159;28;20055;-73
2024/01/23 00:56:50;;;;;;;65.72;62.55;;;;;;;9.16;67.55;101741.38;5110866;28;20028;-73
2024/01/23 00:59:16;;;;;;;62.08;59.22;;;;;;;9.16;67.39;101750.28;5095792;28;20048;-73
2024/01/23 01:01:42;;;;;;;66.10;62.40;;;;;;;9.16;67.13;101757.56;5099957;28;20472;-73
2024/01/23 01:04:07;;;;;;;62.72;59.13;;;;;;;9.13;67.12;101757.97;5108555;28;20063;-73
2024/01/23 01:06:32;;;;;;;67.93;63.38;;;;;;;9.09;66.99;101754.84;5108176;28;20074;-73
2024/01/23 01:08:58;;;;;;;63.53;60.30;;;;;;;9.07;67.21;101749.69;5106208;28;20555;-73
2024/01/23 01:11:24;;;;;;;65.45;62.42;;;;;;;9.06;66.98;101766.88;5111343;28;20039;-73
2024/01/23 01:13:49;;;;;;;61.13;57.78;;;;;;;9.05;67.58;101750.94;5108584;28;20035;-74
2024/01/23 01:16:14;;;;;;;61.05;58.05;;;;;;;9.06;67.30;101771.44;5109692;28;20058;-73
2024/01/23 01:18:40;;;;;;;65.15;61.85;;;;;;;9.06;67.45;101793.00;5108502;28;20484;-73
2024/01/23 01:21:08;;;;;;;63.42;60.08;;;;;;;9.08;67.72;101790.94;5114986;28;20028;-73
2024/01/23 01:23:34;;;;;;;63.15;58.72;;;;;;;9.08;67.33;101791.75;5114501;28;20050;-73
2024/01/23 01:26:01;;;;;;;60.05;57.15;;;;;;;9.08;66.69;101802.53;5098745;28;20039;-73
2024/01/23 01:28:26;;;;;;;62.35;58.72;;;;;;;9.07;66.82;101802.72;5105520;28;20032;-74
2024/01/23 01:30:52;;;;;;;60.25;56.97;;;;;;;9.04;67.04;101803.97;5101027;28;20028;-73
2024/01/23 01:33:18;;;;;;;63.42;60.58;;;;;;;9.03;67.15;101796.94;5115069;28;20024;-74
2024/01/23 01:35:44;;;;;;;66.95;63.13;;;;;;;9.04;67.29;101795.06;5103022;28;20035;-73
2024/01/23 01:38:09;;;;;;;65.50;62.45;;;;;;;9.04;67.05;101819.31;5115119;28;20155;-73
2024/01/23 01:40:35;;;;;;;62.60;58.88;;;;;;;9.03;66.68;101813.13;5103208;28;20101;-74
2024/01/23 01:43:00;;;;;;;60.47;57.53;;;;;;;9.01;66.50;101831.34;5100150;28;20395;-73
2024/01/23 01:45:25;;;;;;;61.83;58.55;;;;;;;9.00;66.95;101832.41;5114499;28;20057;-73
2024/01/23 01:47:52;;;;;;;61.72;58.63;;;;;;;9.01;66.77;101838.59;5113166;28;20055;-73
2024/01/23 01:50:18;;;;;;;62.45;58.88;;;;;;;9.00;67.20;101828.88;5111992;28;20497;-73
2024/01/23 01:52:44;;;;;;;62.97;59.50;;;;;;;9.00;67.19;101824.31;5111794;28;20027;-72
2024/01/23 01:55:10;;;;;;;64.35;61.03;;;;;;;9.01;67.21;101834.03;5104499;28;20119;-73
2024/01/23 01:57:37;;;;;;;66.88;62.75;;;;;;;8.99;67.20;101844.19;5109927;28;20365;-74
2024/01/23 02:00:03;;;;;;;61.58;58.60;;;;;;;9.00;66.95;101853.13;5109750;28;20058;-73
2024/01/23 02:02:28;;;;;;;60.00;56.63;;;;;;;9.00;66.91;101853.97;5110976;28;20086;-74
2024/01/23 02:04:54;;;;;;;63.25;60.17;;;;;;;9.01;67.23;101860.16;5112575;28;20060;-73
2024/01/23 02:07:19;;;;;;;59.83;57.10;;;;;;;9.01;67.00;101854.78;5113971;28;20055;-73
2024/01/23 02:09:45;;;;;;;64.25;60.95;;;;;;;8.98;66.97;101874.06;5109806;28;20035;-74
2024/01/23 02:12:10;;;;;;;60.90;57.13;;;;;;;8.98;66.97;101874.88;5109952;28;20092;-73
2024/01/23 02:14:36;;;;;;;64.38;60.80;;;;;;;8.96;66.60;101870.72;5113537;28;20028;-74
2024/01/23 02:17:01;;;;;;;63.60;59.75;;;;;;;8.95;66.85;101878.00;5106111;28;20035;-74
2024/01/23 02:19:27;;;;;;;61.13;58.03;;;;;;;8.93;67.11;101885.44;5098401;27;20032;-73
2024/01/23 02:21:53;;;;;;;64.22;61.20;;;;;;;8.92;67.27;101883.78;5109882;28;20027;-74
2024/01/23 02:24:18;;;;;;;67.75;64.18;;;;;;;8.93;67.00;101892.72;5113888;28;20157;-73
2024/01/23 02:26:44;;;;;;;66.05;62.88;;;;;;;8.92;67.39;101888.34;5108656;28;20146;-73
2024/01/23 02:29:11;;;;;;;58.90;55.72;;;;;;;8.92;67.07;101886.50;5109310;28;20035;-73
2024/01/23 02:31:37;;;;;;;63.22;58.35;;;;;;;8.91;67.26;101895.59;5113603;28;20026;-73
2024/01/23 02:34:02;;;;;;;61.40;58.13;;;;;;;8.92;66.94;101902.66;5111236;28;20027;-73
2024/01/23 02:36:28;;;;;;;62.65;59.17;;;;;;;8.92;67.11;101896.41;5110204;28;20080;-73
2024/01/23 02:38:53;;;;;;;64.57;60.50;;;;;;;8.91;66.97;101905.53;5111526;28;20084;-73
2024/01/23 02:41:19;;;;;;;60.08;57.10;;;;;;;8.91;66.98;101913.63;5112117;28;20391;-73
2024/01/23 02:43:44;;;;;;;56.85;54.10;;;;;;;8.90;67.00;101925.44;5103781;28;20207;-73
2024/01/23 02:46:09;;;;;;;60.20;57.30;;;;;;;8.91;66.83;101929.78;5098261;28;20036;-73
2024/01/23 02:48:35;;;;;;;63.15;59.83;;;;;;;8.91;66.92;101937.88;5102903;28;20495;-73
2024/01/23 02:51:00;;;;;;;59.55;56.85;;;;;;;8.90;66.73;101937.06;5107610;28;20044;-73
2024/01/23 02:53:26;;;;;;;55.95;53.35;;;;;;;8.91;66.91;101946.78;5110636;28;20049;-73
2024/01/23 02:55:51;;;;;;;60.55;57.65;;;;;;;8.91;66.92;101937.88;5112295;28;20034;-73
2024/01/23 02:58:18;;;;;;;63.67;59.88;;;;;;;8.91;66.83;101935.19;5109188;28;20102;-74
2024/01/23 03:00:44;;;;;;;62.58;58.80;;;;;;;8.90;66.75;101939.75;5111481;28;20383;-73
2024/01/23 03:03:09;;;;;;;59.72;56.92;;;;;;;8.90;66.82;101949.69;5111735;28;20032;-74
2024/01/23 03:05:35;;;;;;;65.82;61.83;;;;;;;8.90;66.73;101957.78;5112899;28;20438;-73
2024/01/23 03:08:01;;;;;;;57.28;54.63;;;;;;;8.88;66.75;101966.06;5108891;28;20043;-74
2024/01/23 03:10:27;;;;;;;61.25;57.78;;;;;;;8.87;66.71;101967.94;5109841;28;20044;-73
2024/01/23 03:12:52;;;;;;;62.88;59.42;;;;;;;8.87;66.70;101965.25;5092286;28;20391;-76
2024/01/23 03:15:18;;;;;;;59.83;57.08;;;;;;;8.89;66.59;101973.09;5092805;28;20096;-74
2024/01/23 03:17:43;;;;;;;60.88;57.85;;;;;;;8.88;66.99;101985.75;5108219;28;20035;-73
2024/01/23 03:20:10;;;;;;;60.28;56.90;;;;;;;8.86;66.59;101981.59;5092868;28;20375;-73
2024/01/23 03:22:36;;;;;;;63.47;59.67;;;;;;;8.84;66.72;101987.19;5102711;28;20097;-73
2024/01/23 03:25:02;;;;;;;58.70;55.88;;;;;;;8.83;66.62;101992.78;5098896;28;20610;-73
2024/01/23 03:27:27;;;;;;;60.42;57.42;;;;;;;8.83;66.63;102006.25;5112523;28;20109;-73
2024/01/23 03:29:53;;;;;;;61.88;58.78;;;;;;;8.82;66.50;102008.13;5104905;28;20474;-74
2024/01/23 03:32:18;;;;;;;62.80;59.00;;;;;;;8.82;66.72;102010.81;5111183;28;20140;-72
2024/01/23 03:34:44;;;;;;;58.55;55.55;;;;;;;8.83;66.83;102012.47;5089460;28;20112;-73
2024/01/23 03:37:09;;;;;;;59.00;55.97;;;;;;;8.81;66.67;102021.78;5102615;28;20349;-73
2024/01/23 03:39:35;;;;;;;60.35;57.05;;;;;;;8.81;66.48;102011.81;5103249;28;20368;-73
2024/01/23 03:42:02;;;;;;;63.00;59.80;;;;;;;8.81;66.43;102013.69;5111281;28;20388;-74
2024/01/23 03:44:28;;;;;;;60.72;57.10;;;;;;;8.81;66.54;102021.78;5111555;28;20024;-73
2024/01/23 03:46:55;;;;;;;64.40;60.33;;;;;;;8.80;66.60;102015.56;5109654;28;20047;-73
2024/01/23 03:49:22;;;;;;;60.17;57.00;;;;;;;8.80;66.63;102020.94;5097327;28;20028;-73
2024/01/23 03:51:48;;;;;;;64.30;60.47;;;;;;;8.79;66.49;102031.91;5110409;28;20031;-74
2024/01/23 03:54:14;;;;;;;60.40;57.20;;;;;;;8.77;66.47;102048.28;5094287;28;20055;-73
2024/01/23 03:56:39;;;;;;;59.97;57.17;;;;;;;8.75;66.44;102052.22;5096373;28;20379;-73
2024/01/23 03:59:05;;;;;;;61.20;58.10;;;;;;;8.74;66.58;102050.53;5104808;28;20060;-73
2024/01/23 04:01:30;;;;;;;65.10;62.00;;;;;;;8.76;66.66;102053.88;5109885;28;20040;-73
2024/01/23 04:03:55;;;;;;;60.38;57.40;;;;;;;8.75;66.38;102049.53;5111403;28;20031;-74
2024/01/23 04:06:21;;;;;;;59.97;56.28;;;;;;;8.74;66.33;102054.06;5109242;28;20391;-74
2024/01/23 04:08:46;;;;;;;57.13;54.53;;;;;;;8.73;66.44;102062.34;5111533;28;20073;-73
2024/01/23 04:11:12;;;;;;;59.88;56.97;;;;;;;8.74;66.30;102066.69;5111622;28;20036;-74
2024/01/23 04:13:37;;;;;;;61.75;58.65;;;;;;;8.72;66.23;102077.69;5110027;28;20035;-73
2024/01/23 04:16:05;;;;;;;66.20;62.95;;;;;;;8.69;66.47;102075.38;5108800;28;20105;-73
2024/01/23 04:18:31;;;;;;;57.78;55.05;;;;;;;8.70;66.28;102089.69;5107688;28;20103;-74
2024/01/23 04:20:56;;;;;;;63.35;59.63;;;;;;;8.69;66.40;102088.84;5110244;28;20131;-73
2024/01/23 04:23:22;;;;;;;57.95;54.90;;;;;;;8.68;66.02;102086.38;5109920;28;20073;-73
2024/01/23 04:25:47;;;;;;;61.17;57.97;;;;;;;8.66;66.42;102090.06;5108266;28;20036;-73
2024/01/23 04:28:13;;;;;;;60.35;57.45;;;;;;;8.65;66.27;102087.59;5110603;28;20031;-74
2024/01/23 04:30:39;;;;;;;56.58;53.38;;;;;;;8.62;66.19;102091.50;5111836;28;20035;-73
2024/01/23 04:33:04;;;;;;;64.78;60.22;;;;;;;8.61;66.34;102095.22;5109135;28;20028;-73
2024/01/23 04:35:29;;;;;;;59.97;57.00;;;;;;;8.62;66.41;102098.75;5110394;28;20108;-73
2024/01/23 04:37:55;;;;;;;57.45;54.47;;;;;;;8.61;66.37;102114.06;5107528;28;20067;-73
2024/01/23 04:40:21;;;;;;;61.30;58.25;;;;;;;8.60;66.56;102125.88;5108068;28;20043;-73
2024/01/23 04:42:46;;;;;;;61.70;58.72;;;;;;;8.61;66.41;102132.91;5107380;28;20113;-73
2024/01/23 04:45:12;;;;;;;57.78;54.40;;;;;;;8.60;66.34;102139.34;5101046;28;20110;-73
2024/01/23 04:47:37;;;;;;;58.00;55.00;;;;;;;8.60;66.16;102142.03;5104723;28;20020;-72
2024/01/23 04:50:03;;;;;;;61.25;57.70;;;;;;;8.59;66.24;102148.47;5104848;28;20468;-73
2024/01/23 04:52:28;;;;;;;57.60;54.70;;;;;;;8.60;66.31;102162.75;5111069;28;20028;-73
2024/01/23 04:54:54;;;;;;;57.22;54.30;;;;;;;8.61;66.30;102159.84;5111236;28;20523;-74
2024/01/23 04:57:19;;;;;;;57.58;54.85;;;;;;;8.59;66.19;102166.47;5115326;28;20035;-74
2024/01/23 04:59:45;;;;;;;57.60;54.80;;;;;;;8.57;66.29;102163.16;5111310;28;20060;-73
2024/01/23 05:02:10;;;;;;;58.08;54.35;;;;;;;8.56;66.14;102167.69;5091402;28;20385;-73
2024/01/23 05:04:36;;;;;;;60.05;56.35;;;;;;;8.54;66.13;102177.00;5111819;28;20035;-72
2024/01/23 05:07:01;;;;;;;56.55;53.55;;;;;;;8.54;66.43;102171.59;5101554;28;20031;-74
2024/01/23 05:09:31;;;;;;;54.75;52.25;;;;;;;8.53;66.27;102183.41;5105915;28;20088;-74
2024/01/23 05:11:57;;;;;;;62.03;58.97;;;;;;;8.53;66.12;102194.19;5114703;28;20054;-73
2024/01/23 05:14:22;;;;;;;57.65;54.83;;;;;;;8.51;66.32;102204.31;5109097;28;20078;-73
2024/01/23 05:16:48;;;;;;;54.92;51.75;;;;;;;8.50;66.21;102200.78;5112475;28;20028;-74
2024/01/23 05:19:14;;;;;;;59.17;55.97;;;;;;;8.49;66.18;102209.06;5104856;28;20032;-74
2024/01/23 05:21:39;;;;;;;62.90;59.55;;;;;;;8.47;66.30;102211.97;5104016;28;20409;-73
2024/01/23 05:24:05;;;;;;;55.15;52.42;;;;;;;8.47;66.36;102216.47;5113995;28;20055;-73
2024/01/23 05:26:31;;;;;;;56.40;53.80;;;;;;;8.47;66.21;102220.03;5103236;28;20043;-72
2024/01/23 05:28:56;;;;;;;58.75;55.92;;;;;;;8.47;66.39;102217.34;5094434;28;20032;-73
2024/01/23 05:31:21;;;;;;;58.72;55.92;;;;;;;8.46;66.15;102223.72;5109013;28;20467;-73
2024/01/23 05:33:47;;;;;;;58.95;55.85;;;;;;;8.43;66.46;102234.91;5113694;28;20031;-73
2024/01/23 05:36:12;;;;;;;59.22;56.05;;;;;;;8.44;66.35;102244.63;5112062;28;20057;-73
2024/01/23 05:38:38;;;;;;;53.20;50.78;;;;;;;8.42;66.22;102252.91;5114591;28;20364;-72
2024/01/23 05:41:03;;;;;;;62.88;59.40;;;;;;;8.42;66.35;102258.31;5111467;28;20043;-74
2024/01/23 05:43:29;;;;;;;54.97;52.05;;;;;;;8.41;66.25;102261.19;5112899;28;20443;-72
2024/01/23 05:45:54;;;;;;;55.30;52.70;;;;;;;8.38;66.07;102265.06;5112562;28;20092;-73
2024/01/23 05:48:20;;;;;;;53.05;50.55;;;;;;;8.36;66.06;102258.19;5114342;28;20031;-72
2024/01/23 05:50:46;;;;;;;58.67;54.53;;;;;;;8.35;66.51;102276.22;5111933;28;20070;-72
2024/01/23 05:53:11;;;;;;;65.65;62.08;;;;;;;8.35;66.38;102275.38;5113476;28;20471;-73
2024/01/23 05:55:36;;;;;;;59.38;56.58;;;;;;;8.33;66.49;102275.56;5108616;28;20035;-73
2024/01/23 05:58:02;;;;;;;57.55;54.35;;;;;;;8.35;66.38;102284.28;5108006;28;20122;-73
2024/01/23 06:00:27;;;;;;;55.33;51.53;;;;;;;8.35;66.47;102295.06;5091479;28;20052;-73
2024/01/23 06:02:53;;;;;;;54.72;52.20;;;;;;;8.33;66.53;102280.94;5112240;28;20038;-73
2024/01/23 06:05:19;;;;;;;58.45;55.63;;;;;;;8.33;66.17;102282.81;5111817;28;20565;-74
2024/01/23 06:07:49;;;;;;;57.85;55.05;;;;;;;8.33;66.35;102297.09;5110914;28;20024;-73
2024/01/23 06:10:18;;;;;;;57.58;54.78;;;;;;;8.32;66.45;102294.63;5110984;28;20080;-74
2024/01/23 06:12:44;;;;;;;;;;;;;;;8.32;66.48;102305.38;5112493;28;20107;-73
2024/01/23 06:15:10;;;;;;;57.25;53.17;;;;;;;8.31;66.70;102314.47;5112994;28;20375;-74
2024/01/23 06:17:36;;;;;;;58.50;53.83;;;;;;;8.30;66.55;102321.72;5097075;28;20111;-73
2024/01/23 06:20:05;;;;;;;58.55;55.67;;;;;;;8.31;66.57;102319.84;5110006;28;20051;-72
2024/01/23 06:22:31;;;;;;;58.47;55.45;;;;;;;8.31;66.57;102328.75;5103839;28;20028;-72
2024/01/23 06:25:13;;;;;;;55.80;53.20;;;;;;;8.32;66.58;102326.94;5094385;28;20049;-73
2024/01/23 06:27:38;;;;;;;57.78;54.40;;;;;;;8.31;66.51;102328.75;5099605;28;20030;-72
2024/01/23 06:30:04;;;;;;;58.58;55.38;;;;;;;8.30;66.72;102337.03;5113293;28;20020;-73
2024/01/23 06:32:30;;;;;;;56.08;52.65;;;;;;;8.29;66.40;102338.91;5106870;28;20032;-73
2024/01/23 06:34:55;;;;;;;56.17;53.17;;;;;;;8.28;66.50;102341.78;5105718;28;20034;-72
2024/01/23 06:37:21;;;;;;;57.45;54.65;;;;;;;8.28;66.61;102349.84;5112536;28;20028;-74
2024/01/23 06:39:47;;;;;;;57.08;53.97;;;;;;;8.27;66.68;102350.88;5112526;28;20103;-74
2024/01/23 06:42:13;;;;;;;59.03;55.72;;;;;;;8.26;66.31;102341.13;5111267;28;20369;-73
2024/01/23 06:44:39;;;;;;;57.47;54.33;;;;;;;8.26;66.43;102346.50;5095528;28;20036;-74
2024/01/23 06:47:05;;;;;;;54.92;51.67;;;;;;;8.20;66.37;102335.47;5106095;28;20028;-72
2024/01/23 06:49:30;;;;;;;53.90;51.40;;;;;;;8.16;66.31;102339.53;5111190;28;20023;-74
2024/01/23 06:51:55;;;;;;;54.70;52.15;;;;;;;8.15;66.40;102342.44;5112805;28;20028;-73
2024/01/23 06:54:21;;;;;;;62.17;59.28;;;;;;;8.14;66.37;102338.06;5102438;28;20407;-73
2024/01/23 06:56:46;;;;;;;57.20;54.30;;;;;;;8.13;66.63;102339.09;5106243;28;20031;-72
2024/01/23 06:59:12;;;;;;;58.28;55.28;;;;;;;8.14;66.51;102333.53;5098221;28;20039;-72
2024/01/23 07:01:38;;;;;;;56.92;53.92;;;;;;;8.15;66.52;102345.97;5111007;28;20067;-72
2024/01/23 07:04:04;;;;;;;57.78;54.75;;;;;;;8.14;66.69;102347.00;5112599;28;20478;-73
2024/01/23 07:06:29;;;;;;;53.67;51.17;;;;;;;8.15;66.50;102350.53;5111714;28;20035;-72
2024/01/23 07:08:55;;;;;;;54.80;52.13;;;;;;;8.13;66.59;102348.00;5108528;28;20394;-73
2024/01/23 07:11:20;;;;;;;58.28;54.95;;;;;;;8.13;66.51;102353.38;5098043;28;20028;-83
2024/01/23 07:13:47;;;;;;;58.20;55.08;;;;;;;8.12;66.43;102354.41;5094391;28;20038;-73
2024/01/23 07:16:12;;;;;;;59.75;56.08;;;;;;;8.12;66.36;102358.97;5100462;28;20114;-72
2024/01/23 07:18:37;;;;;;;54.00;51.47;;;;;;;8.11;66.51;102363.50;5110427;28;20130;-69
2024/01/23 07:21:03;;;;;;;54.83;52.15;;;;;;;8.10;66.38;102358.31;5112485;28;20028;-71
2024/01/23 07:23:29;;;;;;;54.88;51.95;;;;;;;8.08;66.40;102353.09;5102032;28;20032;-70
2024/01/23 07:25:54;;;;;;;53.42;50.90;;;;;;;8.09;66.49;102362.00;5102157;28;20489;-70
2024/01/23 07:28:20;;;;;;;58.85;54.78;;;;;;;8.08;66.54;102363.88;5109630;28;20024;-71
2024/01/23 07:30:45;;;;;;;55.95;53.03;;;;;;;8.10;66.38;102363.69;5111923;28;20304;-72
2024/01/23 07:33:10;;;;;;;56.28;53.00;;;;;;;8.10;66.57;102366.41;5110383;28;20055;-71
2024/01/23 07:35:36;;;;;;;60.72;55.70;;;;;;;8.09;66.44;102372.78;5111717;28;20529;-71
2024/01/23 07:38:01;;;;;;;56.83;53.53;;;;;;;8.07;66.68;102377.53;5112351;28;20106;-71
2024/01/23 07:40:26;;;;;;;53.72;51.05;;;;;;;8.05;66.52;102382.25;5109617;28;20137;-71
2024/01/23 07:42:52;;;;;;;54.33;50.47;;;;;;;8.03;66.51;102380.56;5112151;28;20047;-70
2024/01/23 07:45:17;;;;;;;57.88;55.13;;;;;;;8.02;66.68;102392.38;5107965;28;20059;-70
2024/01/23 07:47:43;;;;;;;53.30;50.80;;;;;;;8.00;66.33;102386.34;5110020;28;20043;-71
2024/01/23 07:50:09;;;;;;;56.78;53.42;;;;;;;8.00;66.76;102391.72;5108912;28;20038;-71
2024/01/23 07:52:35;;;;;;;54.08;51.53;;;;;;;8.01;66.60;102400.63;5107692;28;20089;-72
2024/01/23 07:55:01;;;;;;;53.90;51.40;;;;;;;8.01;66.48;102411.38;5105249;28;20028;-71
2024/01/23 07:57:27;;;;;;;59.80;56.65;;;;;;;8.01;66.79;102417.63;5111593;28;20035;-72
2024/01/23 07:59:52;;;;;;;57.90;54.80;;;;;;;8.02;66.73;102435.44;5108365;28;20146;-71
2024/01/23 08:02:18;;;;;;;56.88;53.97;;;;;;;8.03;66.57;102437.09;5109595;28;20027;-71
2024/01/23 08:04:43;;;;;;;58.42;55.75;;;;;;;8.02;66.62;102434.59;5102369;28;20032;-72
2024/01/23 08:07:09;;;;;;;55.10;52.53;;;;;;;8.02;66.70;102445.38;5110805;28;20402;-75
2024/01/23 08:09:34;;;;;;;58.00;54.72;;;;;;;8.00;66.63;102447.41;5109848;28;20059;-81
2024/01/23 08:11:59;;;;;;;57.65;54.50;;;;;;;8.00;66.36;102455.47;5103459;28;20492;-76
2024/01/23 08:14:25;;;;;;;59.25;55.92;;;;;;;7.99;66.49;102456.50;5111545;28;20494;-72
2024/01/23 08:16:50;;;;;;;54.75;52.15;;;;;;;7.97;66.45;102456.69;5111162;28;20040;-75
2024/01/23 08:19:16;;;;;;;55.88;52.40;;;;;;;7.98;66.48;102466.41;5099481;28;20040;-74
2024/01/23 08:21:41;;;;;;;54.67;51.58;;;;;;;7.99;66.54;102478.03;5109624;28;20020;-73
2024/01/23 08:24:06;;;;;;;57.50;54.30;;;;;;;7.97;66.38;102483.59;5111282;28;20043;-75
2024/01/23 08:26:32;;;;;;;57.40;54.78;;;;;;;7.96;66.63;102481.94;5103152;28;20134;-73
2024/01/23 08:28:59;;;;;;;54.53;50.83;;;;;;;7.96;66.38;102484.63;5095885;28;20490;-73
2024/01/23 08:31:24;;;;;;;55.25;52.40;;;;;;;7.95;66.38;102484.78;5110540;27;20488;-73
2024/01/23 08:33:49;;;;;;;51.92;49.45;;;;;;;7.94;66.52;102489.34;5110232;28;20100;-74
2024/01/23 08:36:15;;;;;;;58.55;55.50;;;;;;;7.92;66.38;102480.59;5096844;28;20112;-73
2024/01/23 08:38:41;;;;;;;54.30;51.70;;;;;;;7.93;66.40;102489.50;5114633;28;20031;-72
2024/01/23 08:41:07;;;;;;;53.35;50.83;;;;;;;7.92;66.47;102482.47;5114160;28;20040;-73
2024/01/23 08:43:34;;;;;;;52.72;50.13;;;;;;;7.91;66.42;102495.09;5101899;28;20042;-73
2024/01/23 08:46:00;;;;;;;55.00;52.30;;;;;;;7.89;66.24;102504.38;5113449;28;20032;-72
2024/01/23 08:48:25;;;;;;;62.35;58.78;;;;;;;7.89;66.33;102510.56;5085311;28;20035;-73
2024/01/23 08:50:51;;;;;;;52.80;50.13;;;;;;;7.88;66.45;102500.81;5113957;28;20494;-73
2024/01/23 08:53:17;;;;;;;54.63;51.83;;;;;;;7.87;66.45;102496.47;5103972;28;20028;-73
2024/01/23 08:55:44;;;;;;;56.47;53.65;;;;;;;7.86;66.48;102512.78;5115408;28;20028;-74
2024/01/23 08:58:09;;;;;;;53.60;50.88;;;;;;;7.84;66.70;102507.59;5114382;28;20442;-73
2024/01/23 09:00:35;;;;;;;53.05;49.88;;;;;;;7.84;66.68;102504.91;5114671;28;20051;-73
2024/01/23 09:03:00;;;;;;;56.20;53.22;;;;;;;7.84;66.56;102510.28;5106764;28;20511;-73
2024/01/23 09:05:25;;;;;;;57.85;54.72;;;;;;;7.82;66.26;102503.41;5108643;28;20382;-73
2024/01/23 09:07:51;;;;;;;53.45;50.53;;;;;;;7.82;66.39;102504.25;5102719;28;20024;-73
2024/01/23 09:10:16;;;;;;;51.75;49.25;;;;;;;7.80;66.52;102499.03;5108410;28;20055;-71
2024/01/23 09:12:41;;;;;;;54.22;51.63;;;;;;;7.78;66.55;102495.69;5098712;28;20094;-73
2024/01/23 09:15:09;;;;;;;54.33;51.72;;;;;;;7.77;66.40;102510.16;5112549;28;20039;-73
2024/01/23 09:17:35;;;;;;;56.08;53.35;;;;;;;7.75;66.53;102500.59;5111383;28;20228;-72
2024/01/23 09:20:00;;;;;;;52.97;50.33;;;;;;;7.75;66.58;102503.28;5114912;28;20036;-73
2024/01/23 09:22:28;;;;;;;57.00;54.00;;;;;;;7.74;66.30;102504.31;5105740;28;20043;-73
2024/01/23 09:24:54;;;;;;;53.75;51.25;;;;;;;7.74;66.51;102498.94;5103287;28;20067;-73
2024/01/23 09:27:19;;;;;;;54.22;51.63;;;;;;;7.73;66.57;102494.56;5101927;28;20075;-73
2024/01/23 09:29:45;;;;;;;53.05;50.00;;;;;;;7.72;66.47;102495.59;5101813;28;20089;-73
2024/01/23 09:32:10;;;;;;;54.45;51.50;;;;;;;7.74;66.56;102499.75;5113082;28;20035;-75
2024/01/23 09:34:36;;;;;;;57.90;55.10;;;;;;;7.73;66.60;102494.56;5114679;28;20426;-74
2024/01/23 09:37:02;;;;;;;55.53;52.60;;;;;;;7.74;66.60;102496.25;5103366;28;20039;-74
2024/01/23 09:39:28;;;;;;;61.08;56.92;;;;;;;7.74;66.69;102493.56;5102631;28;20434;-74
2024/01/23 09:41:59;;;;;;;53.30;50.67;;;;;;;7.74;66.62;102504.31;5106696;28;20031;-74
2024/01/23 09:44:24;;;;;;;54.10;51.03;;;;;;;7.73;66.64;102494.56;5101391;28;20031;-74
2024/01/23 09:46:51;;;;;;;55.03;52.42;;;;;;;7.74;66.87;102507.00;5106423;28;20039;-74
2024/01/23 09:49:17;;;;;;;49.63;47.28;;;;;;;7.73;66.74;102497.25;5112088;28;20106;-75
2024/01/23 09:51:47;;;;;;;51.97;49.28;;;;;;;7.73;66.79;102492.69;5107024;28;20035;-74
2024/01/23 09:54:16;;;;;;;51.80;48.83;;;;;;;7.73;66.67;102487.31;5112005;28;20225;-74
2024/01/23 09:56:41;;;;;;;54.28;51.53;;;;;;;7.69;66.73;102488.72;5113732;28;20486;-74
2024/01/23 09:59:09;;;;;;;51.15;48.65;;;;;;;7.70;66.76;102486.84;5112932;28;20047;-73
2024/01/23 10:01:35;;;;;;;53.05;50.10;;;;;;;7.69;66.97;102491.41;5105320;28;20036;-73
2024/01/23 10:04:04;;;;;;;52.33;49.65;;;;;;;7.69;66.79;102487.88;5103330;28;20388;-75
2024/01/23 10:06:30;;;;;;;56.17;52.95;;;;;;;7.67;66.85;102495.28;5096126;28;20036;-73
2024/01/23 10:08:55;;;;;;;56.22;53.53;;;;;;;7.65;66.97;102508.06;5107059;28;20157;-73
2024/01/23 10:11:21;;;;;;;57.78;54.67;;;;;;;7.66;66.94;102510.59;5109851;28;20425;-74
2024/01/23 10:13:47;;;;;;;53.75;50.92;;;;;;;7.68;67.16;102513.09;5094054;28;20472;-73
2024/01/23 10:16:15;;;;;;;48.70;46.30;;;;;;;7.69;66.75;102512.09;5100452;28;20031;-76
2024/01/23 10:18:40;;;;;;;53.25;50.40;;;;;;;7.69;66.97;102515.59;5117458;27;20527;-72
2024/01/23 10:21:06;;;;;;;55.08;51.65;;;;;;;7.68;66.86;102508.53;5098665;28;20035;-74
2024/01/23 10:23:33;;;;;;;55.65;52.25;;;;;;;7.69;66.98;102515.59;5093489;28;20414;-73
2024/01/23 10:25:59;;;;;;;52.53;49.80;;;;;;;7.70;67.01;102519.13;5103695;28;20036;-73
2024/01/23 10:28:24;;;;;;;54.97;51.20;;;;;;;7.70;67.01;102517.28;5107152;28;20028;-73
2024/01/23 10:30:50;;;;;;;55.72;52.97;;;;;;;7.72;66.77;102520.63;5098464;28;20036;-72
2024/01/23 10:33:16;;;;;;;60.70;56.03;;;;;;;7.71;66.96;102512.72;5104690;28;20114;-74
2024/01/23 10:35:42;;;;;;;55.53;51.85;;;;;;;7.73;66.80;102516.06;5111225;28;20040;-72
2024/01/23 10:38:13;;;;;;;57.67;54.17;;;;;;;7.73;66.94;102516.06;5110261;28;20027;-72
2024/01/23 10:40:38;;;;;;;56.28;53.50;;;;;;;7.73;66.95;102506.16;5105634;28;20115;-73
2024/01/23 10:43:06;;;;;;;53.90;51.08;;;;;;;7.73;66.94;102497.25;5102751;28;20518;-72
2024/01/23 10:45:32;;;;;;;53.85;50.58;;;;;;;7.75;66.87;102500.59;5105373;28;20031;-72
2024/01/23 10:48:00;;;;;;;51.88;49.35;;;;;;;7.77;66.98;102504.78;5101951;28;20090;-72
2024/01/23 10:50:25;;;;;;;55.45;52.58;;;;;;;7.74;66.95;102501.63;5106740;28;20098;-73
2024/01/23 10:52:53;;;;;;;53.38;50.67;;;;;;;7.75;66.83;102498.72;5109607;28;20127;-72
2024/01/23 10:55:21;;;;;;;52.10;49.25;;;;;;;7.75;66.99;102487.16;5105076;28;20028;-80
2024/01/23 10:57:47;;;;;;;53.30;50.40;;;;;;;7.76;67.25;102496.88;5105938;28;20040;-73
2024/01/23 11:00:16;;;;;;;52.60;49.47;;;;;;;7.76;67.18;102489.66;5111450;28;20471;-73
2024/01/23 11:03:05;;;;;;;53.42;50.40;;;;;;;7.77;67.01;102485.94;5110323;28;20027;-73
2024/01/23 11:05:39;;;;;;;53.75;51.10;;;;;;;7.78;66.87;102484.91;5109452;28;20015;-73
2024/01/23 11:08:15;;;;;;;51.38;48.97;;;;;;;7.78;67.09;102471.47;5104182;28;20105;-73
2024/01/23 11:10:50;;;;;;;53.08;50.15;;;;;;;7.78;67.23;102457.19;5109594;28;20110;-75